X  Sluiten METAR luchtvaart weer gegevens      EHGG Eelde Airport
Temperatuur
19°C Temperatuur
13°C Dauwpunt
68% Vochtigheid



Wind
2 KM/U
1 MPH
0 M/S
1 KTS



Kalm
Noord
Huidig weer

Geheel bewolkt Geheel bewolkt
Luchtdruk 1018.92 (hPa) - 30.09 (inHg)
Zicht 6.2 (mijl) - 10 (km)
Vliegveld
Vliegveld code EHGG

Locatie : Eelde Airport
Afstand: 40 (km)

Metar:
EHGG 231055Z AUTO VRB01KT 9999 OVC036 19/13 Q1019 NOSIG

Tijd: 23-07-2021 12:55 CEST